Monticello, Maine
46° 20' 20"N, 67° 53' 10"W, Elevation 575 ft.
Eastern Time

Hourly observations for the last 48 hours

Date

Time

Temperature (F) Humi-
dity
(%)
Wind
(mph)
Pressure Rain (in) Sun
(W/m2)
UV ET
(in)
Air Dew 6 Hour 1 Hr 3 Hr 6 Hr Day
Alt
(in)
Sea
Level
(mb)
Max Min
24 11:00 66.1 41.7 41 NNW 9 G 15 29.72 1006.4 0.00 895 8.4 0.058
24 10:00 63.5 42.4 46 N 8 G 15 29.72 1006.5 0.00 809 6.6 0.039
24 09:00 60.7 42.0 50 N 8 G 15 29.73 1006.9 0.00 677 4.3 0.024
24 08:00 58.3 40.8 58.3 45.7 52 NW 7 G 13 29.72 1006.5 0.00 513 2.2 0.013
24 07:00 54.4 40.4 59 NNW 4 G 11 29.71 1006.1 0.00 345 0.9 0.007
24 06:00 49.9 39.0 66 N 6 G 8 29.69 1005.4 0.00 160 0.0 0.005
24 05:00 47.3 37.7 69 NW 2 G 6 29.69 1005.4 0.00 7 0.0 0.004
24 04:00 46.2 37.7 72 NNW 0 G 5 29.67 1004.8 0.00 0 0.0 0.003
24 03:00 46.1 38.3 74 NW 0 G 7 29.67 1004.7 0.00 0 0.0 0.002
24 02:00 46.4 38.6 64.0 46.2 74 NW 0 G 5 29.66 1004.3 0.00 0 0.0 0.001
24 01:00 47.3 39.4 74 NW 1 G 3 29.66 1004.3 0.00 0 0.0 0.000
24 00:00 49.8 40.0 69 NNW 2 G 6 29.65 1004.2 0.00 0 0.0 0.242
23 23:00 53.3 39.8 60 N 6 G 10 29.64 1003.7 0.00 0 0.0 0.240
23 22:00 57.2 41.7 56 N 3 G 6 29.62 1003.1 0.00 0 0.0 0.237
23 21:00 60.4 40.6 48 N 5 G 10 29.59 1002.2 0.00 0 0.0 0.235
23 20:00 64.0 39.8 75.4 64.0 41 N 5 G 12 29.57 1001.4 0.00 14 0.0 0.231
23 19:00 68.8 40.1 35 N 8 G 18 29.54 1000.4 0.00 91 0.0 0.220
23 18:00 71.8 40.4 32 N 9 G 18 29.51 999.3 0.00 269 0.9 0.205
23 17:00 73.2 40.8 31 NNW 11 G 24 29.49 998.8 0.00 448 2.2 0.189
23 16:00 73.0 45.9 38 NNW 7 G 20 29.48 998.3 0.00 726 4.1 0.171
23 15:00 72.8 48.4 42 NW 9 G 19 29.48 998.3 0.00 853 6.4 0.156
23 14:00 75.3 48.7 76.0 67.1 39 WNW 9 G 24 29.48 998.2 0.00 258 3.6 0.136
23 13:00 75.3 48.0 38 WNW 4 G 22 29.49 998.8 0.00 309 4.2 0.112
23 12:00 75.4 52.6 45 N 6 G 23 29.51 999.5 0.00 1016 9.8 0.089
23 11:00 73.7 49.8 43 NW 5 G 19 29.54 1000.3 0.00 206 8.7 0.066
23 10:00 71.5 47.2 42 W 10 G 23 29.56 1000.9 0.00 759 6.0 0.046
23 09:00 69.3 50.4 51 N 6 G 17 29.56 1001.0 0.00 608 3.7 0.030
23 08:00 67.1 49.4 67.1 56.9 53 N 10 G 20 29.57 1001.4 0.00 497 2.1 0.018
23 07:00 64.7 49.1 57 NNW 8 G 19 29.56 1001.1 0.00 325 0.8 0.011
23 06:00 60.5 47.0 61 W 3 G 12 29.56 1000.9 0.00 158 0.0 0.008
23 05:00 57.0 45.0 64 W 4 G 7 29.55 1000.8 0.00 16 0.0 0.007
23 04:00 58.6 44.8 60 W 2 G 10 29.55 1000.8 0.00 0 0.0 0.005
23 03:00 58.4 43.7 58 WNW 3 G 7 29.55 1000.8 0.00 0 0.0 0.003
23 02:00 58.7 44.0 66.0 50.4 58 WNW 3 G 12 29.55 1000.6 0.00 0 0.0 0.001
23 01:00 56.3 43.5 62 W 3 G 9 29.54 1000.5 0.00 0 0.0 0.000
23 00:00 52.2 44.2 74 W 3 G 9 29.55 1000.8 0.00 0 0.0 0.223
22 23:00 52.3 45.7 78 W 1 G 4 29.56 1001.0 0.00 0 0.0 0.222
22 22:00 55.1 45.1 69 W 1 G 4 29.57 1001.4 0.00 0 0.0 0.221
22 21:00 59.2 46.2 62 NW 1 G 5 29.57 1001.3 0.00 0 0.0 0.220
22 20:00 66.0 45.2 73.9 66.0 47 NNW 4 G 12 29.56 1000.9 0.00 12 0.0 0.217
22 19:00 69.9 42.5 37 NNW 9 G 17 29.55 1000.6 0.00 88 0.0 0.208
22 18:00 72.0 45.0 38 NNW 8 G 20 29.54 1000.4 0.00 62 0.8 0.194
22 17:00 71.8 46.2 40 N 9 G 23 29.55 1000.5 0.00 454 2.4 0.178
22 16:00 73.3 46.9 39 N 16 G 28 29.54 1000.5 0.00 128 2.3 0.157
22 15:00 71.8 50.5 47 N 7 G 20 29.53 1000.0 0.00 831 7.0 0.135
22 14:00 71.3 48.9 71.8 63.4 45 N 14 G 22 29.53 1000.0 0.00 278 9.3 0.110
22 13:00 70.3 52.4 53 N 9 G 19 29.53 999.9 0.00 1028 10.2 0.087
22 12:00 69.9 52.5 54 NNW 11 G 20 29.53 1000.1 0.00 313 4.4 0.067
22 11:00 68.6 54.2 60 NNW 6 G 20 29.53 1000.1 0.00 990 9.5 0.046
22 10:00 67.3 54.7 64 N 7 G 18 29.54 1000.4 0.00 698 7.4 0.031
22 09:00 65.3 54.5 68 NNW 8 G 16 29.54 1000.4 0.00 684 4.5 0.017
22 08:00 63.4 53.1 63.4 49.2 69 N 4 G 13 29.54 1000.4 0.00 577 2.3 0.007
22 07:00 59.6 52.0 76 N 5 G 10 29.53 1000.1 0.00 330 1.0 0.002
22 06:00 54.4 50.0 85 NNW 2 G 8 29.53 999.9 0.00 144 0.0 0.000
22 05:00 50.4 48.2 92 NW 2 G 6 29.51 999.3 0.00 11 0.0 0.000
22 04:00 49.5 47.6 93 N 1 G 6 29.49 998.8 0.00 0 0.0 0.000
22 03:00 49.6 47.7 93 N 0 G 4 29.49 998.5 0.00 0 0.0 0.000
22 02:00 50.1 47.9 64.2 50.1 92 NNW 3 G 7 29.49 998.6 0.01 0.00 0 0.0 0.000
22 01:00 51.6 48.8 90 NNW 2 G 5 29.49 998.6 0.00 0 0.0 0.000
22 00:00 52.6 49.5 89 NNW 1 G 6 29.49 998.6 0.06 0 0.0 0.075
21 23:00 55.1 50.4 84 NNW 0 G 4 29.48 998.4 0.01 0.06 0 0.0 0.074
21 22:00 58.6 52.5 80 NW 2 G 7 29.47 998.1 0.06 0 0.0 0.073
21 21:00 62.1 52.6 71 NNW 6 G 12 29.46 997.5 0.01 0.06 0 0.0 0.071
21 20:00 64.2 56.8 67.6 62.6 77 NNW 3 G 11 29.45 997.3 0.01 0.05 35 0.0 0.069
21 19:00 65.3 56.4 73 N 4 G 13 29.44 997.1 0.05 90 0.0 0.066
21 18:00 66.3 57.4 73 NNW 4 G 9 29.44 996.9 0.05 123 0.5 0.061
21 17:00 66.9 55.6 67 N 8 G 16 29.43 996.7 0.01 0.05 427 2.4 0.051
21 16:00 65.8 56.1 71 N 3 G 18 29.43 996.6 0.05 299 2.8 0.043
21 15:00 64.7 57.3 77 N 8 G 15 29.43 996.7 0.01 0.05 352 4.1 0.036
21 14:00 62.6 56.3 64.3 58.9 80 N 7 G 14 29.42 996.3 0.04 188 2.2 0.031
21 13:00 64.2 57.6 79 N 10 G 19 29.42 996.2 0.04 374 4.7 0.023
21 12:00 60.7 58.1 91 N 9 G 19 29.43 996.7 0.04 190 2.4 0.019

Data generated by WxSolution Version 1.9.1.7, Build 2018.11.24.